Time;durP1;ratioP1;P1;durP2;ratioP2;P2;SDS_P1;SDS_P2;PMS_P1;PMS_P2;Temp;Humidity;BMP_temperature;BMP_pressure;BME280_temperature;BME280_humidity;BME280_pressure;Samples;Min_cycle;Max_cycle;Signal;HPM_P1;HPM_P2
2021/10/01 00:00:18;;;;;;;2.42;1.60;;;13.80;96.80;;;;;;5012266;28;20477;-64
2021/10/01 00:02:45;;;;;;;4.45;3.17;;;13.80;96.80;;;;;;5012597;28;20217;-65
2021/10/01 00:05:12;;;;;;;5.07;3.40;;;13.90;96.90;;;;;;5012815;28;20222;-65
2021/10/01 00:07:39;;;;;;;2.80;2.60;;;13.90;97.00;;;;;;5011863;28;21205;-65
2021/10/01 00:10:06;;;;;;;2.97;1.93;;;13.90;97.10;;;;;;5012406;28;20469;-65
2021/10/01 00:12:33;;;;;;;3.97;2.10;;;13.90;97.10;;;;;;4999362;28;20473;-65
2021/10/01 00:15:01;;;;;;;3.30;2.60;;;13.90;97.00;;;;;;5009012;28;20814;-65
2021/10/01 00:17:28;;;;;;;4.47;2.20;;;13.90;96.90;;;;;;5011727;28;20482;-65
2021/10/01 00:19:55;;;;;;;7.45;4.18;;;13.80;96.80;;;;;;5012550;28;20239;-66
2021/10/01 00:22:22;;;;;;;2.15;1.92;;;13.80;96.90;;;;;;5008918;28;20231;-65
2021/10/01 00:24:49;;;;;;;2.10;1.90;;;13.80;97.00;;;;;;5008876;28;20223;-65
2021/10/01 00:27:17;;;;;;;2.67;2.00;;;13.80;97.00;;;;;;5012119;28;20221;-65
2021/10/01 00:29:44;;;;;;;2.37;1.93;;;13.80;97.00;;;;;;5012746;28;20477;-66
2021/10/01 00:32:13;;;;;;;5.57;2.17;;;13.80;97.30;;;;;;5012362;28;20472;-66
2021/10/01 00:34:40;;;;;;;3.83;2.15;;;13.80;97.00;;;;;;5012378;28;20236;-65
2021/10/01 00:37:07;;;;;;;5.88;4.15;;;13.80;97.00;;;;;;5012532;28;20556;-65
2021/10/01 00:39:34;;;;;;;10.20;5.40;;;13.80;97.00;;;;;;5011899;28;20240;-65
2021/10/01 00:42:01;;;;;;;6.30;4.53;;;13.80;97.10;;;;;;5012138;28;20231;-65
2021/10/01 00:44:28;;;;;;;5.72;5.22;;;13.70;97.10;;;;;;5011756;28;20225;-65
2021/10/01 00:46:55;;;;;;;7.55;6.80;;;13.70;97.10;;;;;;5012140;28;20221;-65
2021/10/01 00:49:24;;;;;;;4.93;3.08;;;13.70;97.10;;;;;;5011786;28;20333;-65
2021/10/01 00:51:52;;;;;;;8.40;4.40;;;13.70;97.20;;;;;;5008194;28;20579;-65
2021/10/01 00:54:20;;;;;;;6.47;5.63;;;13.60;97.20;;;;;;5009650;28;20225;-65
2021/10/01 00:56:47;;;;;;;6.95;3.40;;;13.60;97.40;;;;;;5011921;28;20232;-65
2021/10/01 00:59:14;;;;;;;3.47;2.35;;;13.60;97.30;;;;;;5006787;28;20230;-65
2021/10/01 01:01:41;;;;;;;2.65;2.05;;;13.60;97.40;;;;;;5011311;28;20226;-65
2021/10/01 01:04:09;;;;;;;3.10;2.15;;;13.60;97.30;;;;;;5012534;28;20228;-65
2021/10/01 01:06:44;;;;;;;1.85;1.75;;;13.60;97.50;;;;;;5011713;28;20313;-65
2021/10/01 01:09:22;;;;;;;2.90;2.70;;;13.50;97.40;;;;;;5011885;28;20228;-65
2021/10/01 01:12:03;;;;;;;3.20;2.38;;;13.50;97.40;;;;;;5000810;28;20952;-65
2021/10/01 01:14:37;;;;;;;3.22;2.65;;;13.50;97.50;;;;;;5011189;28;20676;-65
2021/10/01 01:17:07;;;;;;;2.92;2.38;;;13.50;97.70;;;;;;5012201;28;20232;-66
2021/10/01 01:19:54;;;;;;;4.95;2.20;;;13.40;97.60;;;;;;5009543;28;20230;-65
2021/10/01 01:22:31;;;;;;;3.70;2.20;;;13.40;97.70;;;;;;5009602;28;20216;-65
2021/10/01 01:25:08;;;;;;;3.92;2.83;;;13.40;97.80;;;;;;5013565;28;20678;-65
2021/10/01 01:27:46;;;;;;;3.60;2.88;;;13.40;97.80;;;;;;5015170;28;20251;-65
2021/10/01 01:30:16;;;;;;;10.98;3.10;;;13.40;97.90;;;;;;5015380;28;20533;-65
2021/10/01 01:32:48;;;;;;;11.30;9.18;;;13.30;97.80;;;;;;5014882;28;20229;-65
2021/10/01 01:35:20;;;;;;;3.88;2.97;;;13.30;97.90;;;;;;5015376;28;20221;-66
2021/10/01 01:37:52;;;;;;;2.97;2.67;;;13.30;98.00;;;;;;5015114;28;20676;-65
2021/10/01 01:40:22;;;;;;;4.43;2.50;;;13.40;98.10;;;;;;5015419;28;20243;-65
2021/10/01 01:42:52;;;;;;;8.77;3.47;;;13.30;98.00;;;;;;5014936;28;20225;-66
2021/10/01 01:45:19;;;;;;;4.70;2.78;;;13.30;97.90;;;;;;5015119;28;20232;-65
2021/10/01 01:47:49;;;;;;;7.85;3.35;;;13.30;98.00;;;;;;5015100;28;20247;-65
2021/10/01 01:50:17;;;;;;;4.22;3.40;;;13.30;98.00;;;;;;5015181;28;20575;-65
2021/10/01 01:52:46;;;;;;;2.25;2.08;;;13.30;97.90;;;;;;5014872;28;20268;-66
2021/10/01 01:55:14;;;;;;;6.93;4.80;;;13.30;97.90;;;;;;5002266;28;20222;-65
2021/10/01 01:57:46;;;;;;;3.45;2.63;;;13.30;98.00;;;;;;5014667;28;20680;-66
2021/10/01 02:00:13;;;;;;;2.58;1.52;;;13.30;98.10;;;;;;5004466;28;20238;-65
2021/10/01 02:02:41;;;;;;;2.17;1.75;;;13.30;98.00;;;;;;5014664;28;20221;-65
2021/10/01 02:05:11;;;;;;;6.55;4.60;;;13.30;98.10;;;;;;5015152;28;20801;-66
2021/10/01 02:07:40;;;;;;;3.95;2.70;;;13.30;98.10;;;;;;5014747;28;20230;-65
2021/10/01 02:10:09;;;;;;;3.17;2.05;;;13.40;98.20;;;;;;5014777;28;20229;-65
2021/10/01 02:12:36;;;;;;;3.03;1.80;;;13.30;98.00;;;;;;5014914;28;20235;-65
2021/10/01 02:15:06;;;;;;;3.33;2.60;;;13.30;98.00;;;;;;5014532;28;20228;-66
2021/10/01 02:17:36;;;;;;;2.60;2.40;;;13.30;98.10;;;;;;5014932;28;20222;-65
2021/10/01 02:20:06;;;;;;;4.60;2.25;;;13.30;98.20;;;;;;5014415;28;20247;-66
2021/10/01 02:22:35;;;;;;;3.08;2.25;;;13.30;98.20;;;;;;5014665;28;20229;-65
2021/10/01 02:25:03;;;;;;;4.60;2.60;;;13.30;98.20;;;;;;5014311;28;20528;-65
2021/10/01 02:27:34;;;;;;;2.08;1.98;;;13.30;98.30;;;;;;5014877;28;20226;-65
2021/10/01 02:30:07;;;;;;;3.30;3.00;;;13.30;98.40;;;;;;5014116;28;20232;-65
2021/10/01 02:32:38;;;;;;;2.13;1.92;;;13.20;98.40;;;;;;5014495;28;20716;-66
2021/10/01 02:35:06;;;;;;;2.65;2.45;;;13.20;98.40;;;;;;5014088;28;20659;-65
2021/10/01 02:37:35;;;;;;;2.72;2.50;;;13.20;98.40;;;;;;5014504;28;20234;-65
2021/10/01 02:40:05;;;;;;;3.38;2.20;;;13.20;98.50;;;;;;5013892;28;20232;-65
2021/10/01 02:42:32;;;;;;;5.38;3.42;;;13.20;98.80;;;;;;5014257;28;20221;-65
2021/10/01 02:45:00;;;;;;;2.78;2.00;;;13.10;98.40;;;;;;5014065;28;20236;-65
2021/10/01 02:47:30;;;;;;;3.20;2.95;;;13.10;98.50;;;;;;5014177;28;20235;-65
2021/10/01 02:49:57;;;;;;;5.25;2.92;;;13.10;98.60;;;;;;5013578;28;20239;-65
2021/10/01 02:52:29;;;;;;;3.65;2.40;;;13.10;98.60;;;;;;5014383;28;20225;-65
2021/10/01 02:55:06;;;;;;;3.35;2.40;;;13.10;98.60;;;;;;5013762;28;20309;-65
2021/10/01 02:57:51;;;;;;;4.65;2.55;;;13.10;98.60;;;;;;5014037;28;20232;-65
2021/10/01 03:00:19;;;;;;;2.35;2.00;;;13.10;98.70;;;;;;5013986;28;20221;-65
2021/10/01 03:02:49;;;;;;;3.35;2.60;;;13.00;99.00;;;;;;5013782;28;20235;-65
2021/10/01 03:05:17;;;;;;;4.65;3.30;;;12.90;98.80;;;;;;5013982;28;20230;-65
2021/10/01 03:07:45;;;;;;;3.55;3.15;;;13.00;98.80;;;;;;5013616;28;20222;-66
2021/10/01 03:10:14;;;;;;;5.25;2.83;;;13.00;98.80;;;;;;5013882;28;20562;-65
2021/10/01 03:12:43;;;;;;;3.67;2.72;;;13.00;98.90;;;;;;5013444;28;20234;-65
2021/10/01 03:15:12;;;;;;;3.08;2.78;;;12.90;98.60;;;;;;5013881;28;20221;-65
2021/10/01 03:17:42;;;;;;;2.55;2.35;;;12.90;98.80;;;;;;5013351;28;20236;-65
2021/10/01 03:20:10;;;;;;;3.47;2.60;;;12.90;98.80;;;;;;5013732;28;20222;-65
2021/10/01 03:22:40;;;;;;;4.10;2.70;;;12.80;98.60;;;;;;5013234;28;20257;-65
2021/10/01 03:25:08;;;;;;;3.65;2.90;;;12.80;98.70;;;;;;5013639;28;20215;-65
2021/10/01 03:27:38;;;;;;;3.10;2.45;;;12.80;98.70;;;;;;5013140;28;20229;-64
2021/10/01 03:30:08;;;;;;;2.65;2.45;;;12.80;98.70;;;;;;5013310;28;20229;-65
2021/10/01 03:32:36;;;;;;;2.97;2.60;;;12.80;98.80;;;;;;5013126;28;20228;-65
2021/10/01 03:35:05;;;;;;;4.22;3.30;;;12.70;98.70;;;;;;5013654;28;20247;-64
2021/10/01 03:37:33;;;;;;;4.00;3.25;;;12.70;98.80;;;;;;5013018;28;20222;-65
2021/10/01 03:40:06;;;;;;;2.72;2.53;;;12.70;98.80;;;;;;5013330;28;20226;-64
2021/10/01 03:42:33;;;;;;;5.68;3.20;;;12.70;98.70;;;;;;5013021;28;20220;-65
2021/10/01 03:45:02;;;;;;;3.97;3.15;;;12.70;98.70;;;;;;5013286;28;20229;-65
2021/10/01 03:47:29;;;;;;;2.80;2.50;;;12.70;98.80;;;;;;5012558;28;20224;-65
2021/10/01 03:49:56;;;;;;;7.90;2.55;;;12.60;98.80;;;;;;5013432;28;20241;-65
2021/10/01 03:52:23;;;;;;;3.30;3.08;;;12.60;98.90;;;;;;5013124;28;20682;-65
2021/10/01 03:54:51;;;;;;;5.53;2.90;;;12.60;98.80;;;;;;5012838;28;20235;-65
2021/10/01 03:57:18;;;;;;;4.68;3.10;;;12.60;98.80;;;;;;5013201;28;20316;-65
2021/10/01 03:59:45;;;;;;;8.85;3.85;;;12.50;98.90;;;;;;5012546;28;20253;-63
2021/10/01 04:02:13;;;;;;;3.58;3.28;;;12.50;98.90;;;;;;5013201;28;20225;-64
2021/10/01 04:04:40;;;;;;;4.97;3.92;;;12.50;99.00;;;;;;5012723;28;20737;-65
2021/10/01 04:07:07;;;;;;;5.30;4.80;;;12.50;98.90;;;;;;5013120;28;20250;-65
2021/10/01 04:09:34;;;;;;;4.28;3.88;;;12.50;98.90;;;;;;5012531;28;20231;-65
2021/10/01 04:12:01;;;;;;;6.90;4.57;;;12.50;98.90;;;;;;5013018;28;20841;-65
2021/10/01 04:14:28;;;;;;;4.07;3.00;;;12.50;98.90;;;;;;5012642;28;20624;-64
2021/10/01 04:16:55;;;;;;;7.45;3.42;;;12.50;98.80;;;;;;5012932;28;20677;-65
2021/10/01 04:19:23;;;;;;;3.03;2.83;;;12.50;98.90;;;;;;5012954;28;20304;-65
2021/10/01 04:21:50;;;;;;;3.13;2.90;;;12.50;98.90;;;;;;5012343;28;20239;-65
2021/10/01 04:24:17;;;;;;;4.10;2.92;;;12.50;98.90;;;;;;5013047;28;20227;-64
2021/10/01 04:26:44;;;;;;;3.65;2.80;;;12.50;98.80;;;;;;5012487;28;20238;-65
2021/10/01 04:29:11;;;;;;;5.00;3.17;;;12.40;98.80;;;;;;5012737;28;20224;-65
2021/10/01 04:31:38;;;;;;;3.40;3.10;;;12.40;98.90;;;;;;5012567;28;20232;-64
2021/10/01 04:34:06;;;;;;;3.38;2.70;;;12.40;99.30;;;;;;5012813;28;20566;-64
2021/10/01 04:36:35;;;;;;;3.90;2.67;;;12.40;98.90;;;;;;5012394;28;20225;-64
2021/10/01 04:39:02;;;;;;;2.95;2.67;;;12.40;98.90;;;;;;5012870;28;20560;-66
2021/10/01 04:41:29;;;;;;;3.38;2.70;;;12.40;99.00;;;;;;5012727;28;20218;-66
2021/10/01 04:43:56;;;;;;;3.70;3.20;;;12.40;99.10;;;;;;5012295;28;20221;-66
2021/10/01 04:46:23;;;;;;;4.82;2.83;;;12.40;99.10;;;;;;5012786;28;20225;-66
2021/10/01 04:48:50;;;;;;;3.08;2.75;;;12.40;98.90;;;;;;5012103;28;20744;-66
2021/10/01 04:51:18;;;;;;;3.78;3.03;;;12.40;98.90;;;;;;5012791;28;20614;-66
2021/10/01 04:53:46;;;;;;;3.45;3.15;;;12.40;98.80;;;;;;5012240;28;20229;-66
2021/10/01 04:56:13;;;;;;;3.13;2.60;;;12.50;98.90;;;;;;5012559;28;20312;-63
2021/10/01 04:58:40;;;;;;;2.92;2.63;;;12.50;98.80;;;;;;5012444;28;20566;-64
2021/10/01 05:01:07;;;;;;;4.15;3.75;;;12.50;98.70;;;;;;5016313;28;20235;-64
2021/10/01 05:03:33;;;;;;;4.47;3.10;;;12.50;98.70;;;;;;5015791;28;20235;-64
2021/10/01 05:06:00;;;;;;;3.33;3.03;;;12.50;98.60;;;;;;5016138;28;20226;-64
2021/10/01 05:08:27;;;;;;;5.60;3.50;;;12.40;98.60;;;;;;5016153;28;20244;-65
2021/10/01 05:10:56;;;;;;;5.38;3.60;;;12.50;98.70;;;;;;5015600;28;20488;-65
2021/10/01 05:13:23;;;;;;;3.10;2.90;;;12.40;98.70;;;;;;5016005;28;20229;-65
2021/10/01 05:15:50;;;;;;;2.95;2.65;;;12.50;98.80;;;;;;5015880;28;20248;-65
2021/10/01 05:18:18;;;;;;;3.20;2.90;;;12.40;98.80;;;;;;5015880;28;20303;-65
2021/10/01 05:20:45;;;;;;;3.53;3.22;;;12.40;98.80;;;;;;5015571;28;20232;-65
2021/10/01 05:23:12;;;;;;;3.45;3.17;;;12.40;98.90;;;;;;5015808;28;20226;-65
2021/10/01 05:25:39;;;;;;;6.18;3.22;;;12.30;98.90;;;;;;5015467;28;20668;-65
2021/10/01 05:28:07;;;;;;;4.10;3.80;;;12.40;99.00;;;;;;5015717;28;20709;-65
2021/10/01 05:30:34;;;;;;;4.30;3.90;;;12.40;99.00;;;;;;5015023;28;20536;-65
2021/10/01 05:33:05;;;;;;;4.00;3.60;;;12.40;99.00;;;;;;5015490;28;20731;-65
2021/10/01 05:35:34;;;;;;;5.35;4.38;;;12.40;99.00;;;;;;5015795;28;20223;-66
2021/10/01 05:38:01;;;;;;;4.95;3.92;;;12.40;98.90;;;;;;5015424;28;20656;-64
2021/10/01 05:40:28;;;;;;;3.72;3.42;;;12.40;98.70;;;;;;5015723;28;20236;-64
2021/10/01 05:42:55;;;;;;;3.38;3.10;;;12.30;98.60;;;;;;5015144;28;20575;-65
2021/10/01 05:45:23;;;;;;;4.63;3.20;;;12.30;98.70;;;;;;5015479;28;20689;-64
2021/10/01 05:47:50;;;;;;;4.35;3.05;;;12.40;98.70;;;;;;5014857;28;20291;-64
2021/10/01 05:50:17;;;;;;;4.05;3.40;;;12.40;98.70;;;;;;5015235;28;20225;-64
2021/10/01 05:52:53;;;;;;;2.63;2.42;;;12.40;98.50;;;;;;5015081;28;20311;-64
2021/10/01 05:55:20;;;;;;;3.80;3.50;;;12.40;98.50;;;;;;5015330;28;20699;-64
2021/10/01 05:57:47;;;;;;;4.10;3.70;;;12.40;98.40;;;;;;5014722;28;20720;-65
2021/10/01 06:00:15;;;;;;;4.65;3.33;;;12.40;98.40;;;;;;5015073;28;20235;-65
2021/10/01 06:02:44;;;;;;;4.78;3.30;;;12.40;98.30;;;;;;5014682;28;20234;-66
2021/10/01 06:05:11;;;;;;;5.85;4.30;;;12.40;98.30;;;;;;5015217;28;20235;-64
2021/10/01 06:07:39;;;;;;;4.20;3.80;;;12.40;98.30;;;;;;5014794;28;20227;-64
2021/10/01 06:10:13;;;;;;;7.40;3.10;;;12.40;98.30;;;;;;5014535;28;20564;-65
2021/10/01 06:12:41;;;;;;;4.05;3.47;;;12.40;98.20;;;;;;5014438;28;20227;-64
2021/10/01 06:15:09;;;;;;;6.47;4.35;;;12.50;98.30;;;;;;5014857;28;20225;-64
2021/10/01 06:17:36;;;;;;;3.30;3.08;;;12.50;98.20;;;;;;5014938;28;20243;-65
2021/10/01 06:20:06;;;;;;;5.93;3.42;;;12.50;98.10;;;;;;5014349;28;20344;-65
2021/10/01 06:22:33;;;;;;;4.57;3.20;;;12.50;98.20;;;;;;5014928;28;20236;-65
2021/10/01 06:25:00;;;;;;;4.15;3.20;;;12.50;98.00;;;;;;5014178;28;20250;-65
2021/10/01 06:27:27;;;;;;;2.67;2.47;;;12.50;98.10;;;;;;5014514;28;20553;-65
2021/10/01 06:29:54;;;;;;;3.40;3.05;;;12.60;98.20;;;;;;5014119;28;20667;-65
2021/10/01 06:32:22;;;;;;;3.05;2.40;;;12.60;98.10;;;;;;5014446;28;20229;-66
2021/10/01 06:34:48;;;;;;;4.18;3.72;;;12.70;98.20;;;;;;5014235;28;20242;-65
2021/10/01 06:37:17;;;;;;;3.65;2.90;;;12.70;98.10;;;;;;5014566;28;20232;-65
2021/10/01 06:39:44;;;;;;;3.28;2.85;;;12.80;98.00;;;;;;5014003;28;20284;-65
2021/10/01 06:42:13;;;;;;;7.13;3.80;;;12.90;98.00;;;;;;5014531;28;20225;-65
2021/10/01 06:44:42;;;;;;;9.15;8.05;;;12.90;97.70;;;;;;5014457;28;20233;-66
2021/10/01 06:47:12;;;;;;;4.55;3.45;;;12.90;97.30;;;;;;5014058;28;20615;-65
2021/10/01 06:49:45;;;;;;;4.45;3.05;;;12.90;97.40;;;;;;5014146;28;20234;-65
2021/10/01 07:39:10;;;;;;;2.65;2.45;;;13.70;96.80;;;;;;5013719;28;20226;-65
2021/10/01 08:20:16;;;;;;;4.40;3.13;;;14.70;95.70;;;;;;4952409;29;20611;-67
2021/10/01 08:22:43;;;;;;;3.97;2.80;;;14.80;95.50;;;;;;4975271;28;20473;-67
2021/10/01 08:25:11;;;;;;;8.57;5.83;;;14.80;95.60;;;;;;4995107;28;20480;-67
2021/10/01 08:27:38;;;;;;;4.30;3.40;;;14.90;95.70;;;;;;5012343;28;20488;-67
2021/10/01 08:30:09;;;;;;;5.70;3.10;;;15.00;95.20;;;;;;5012759;28;20818;-67
2021/10/01 08:32:38;;;;;;;3.53;2.40;;;15.10;95.30;;;;;;5012714;28;20460;-67
2021/10/01 08:35:07;;;;;;;6.00;2.60;;;15.10;95.30;;;;;;5016968;28;20468;-67
2021/10/01 08:37:34;;;;;;;8.20;2.87;;;15.20;95.30;;;;;;5016082;28;20540;-67
2021/10/01 08:40:01;;;;;;;2.37;2.17;;;15.30;95.20;;;;;;4996992;28;20488;-67
2021/10/01 08:42:28;;;;;;;2.40;2.13;;;15.30;95.10;;;;;;4996578;28;20461;-67
2021/10/01 08:44:55;;;;;;;2.00;1.90;;;15.40;95.00;;;;;;5011359;28;20469;-67
2021/10/01 08:47:24;;;;;;;13.10;10.40;;;15.50;94.80;;;;;;5015903;28;20981;-67
2021/10/01 08:49:56;;;;;;;3.30;2.60;;;15.50;94.50;;;;;;5016331;28;20472;-67
2021/10/01 08:52:23;;;;;;;4.10;2.20;;;15.60;94.20;;;;;;5015991;28;20468;-67
2021/10/01 08:54:50;;;;;;;2.70;1.90;;;15.50;94.10;;;;;;5016413;28;20460;-67
2021/10/01 08:57:17;;;;;;;1.97;1.77;;;15.50;94.30;;;;;;5015788;28;20469;-67
2021/10/01 08:59:44;;;;;;;1.80;1.70;;;15.60;94.40;;;;;;5015942;28;20472;-67
2021/10/01 09:02:11;;;;;;;2.50;2.40;;;15.80;94.50;;;;;;5016004;28;20468;-67
2021/10/01 09:04:37;;;;;;;2.90;2.33;;;15.80;94.70;;;;;;5015717;28;20471;-67
2021/10/01 09:07:06;;;;;;;2.27;1.80;;;15.90;94.70;;;;;;5016141;28;20468;-67
2021/10/01 09:09:36;;;;;;;3.53;1.70;;;16.00;94.70;;;;;;5015552;28;20477;-67
2021/10/01 09:12:04;;;;;;;2.03;1.80;;;16.10;94.30;;;;;;5015937;28;20559;-67
2021/10/01 09:14:32;;;;;;;2.50;1.30;;;16.10;94.30;;;;;;5015536;28;20471;-67
2021/10/01 09:17:11;;;;;;;3.47;2.03;;;16.20;94.10;;;;;;5016098;28;20479;-67
2021/10/01 09:19:39;;;;;;;5.73;2.20;;;16.20;94.10;;;;;;5015454;28;20469;-67
2021/10/01 09:22:07;;;;;;;2.97;2.40;;;16.20;94.00;;;;;;5009600;28;20493;-67
2021/10/01 09:24:41;;;;;;;6.57;2.23;;;16.30;94.00;;;;;;5015276;28;20475;-67
2021/10/01 09:27:09;;;;;;;2.70;1.70;;;16.40;93.80;;;;;;5015465;28;20488;-67
2021/10/01 09:29:37;;;;;;;5.23;2.03;;;16.40;93.70;;;;;;5015438;28;20559;-67
2021/10/01 09:32:11;;;;;;;2.57;2.17;;;16.50;93.70;;;;;;5015596;28;20473;-67
2021/10/01 09:34:41;;;;;;;1.97;1.57;;;16.50;93.60;;;;;;5015283;28;20460;-67
2021/10/01 09:37:11;;;;;;;2.70;1.30;;;16.60;93.50;;;;;;5015659;28;20483;-67
2021/10/01 09:39:41;;;;;;;2.83;1.53;;;16.70;93.50;;;;;;5015208;28;20473;-67
2021/10/01 09:42:15;;;;;;;4.93;1.70;;;16.80;93.20;;;;;;5015444;28;20469;-67
2021/10/01 09:44:48;;;;;;;3.20;2.90;;;16.80;93.10;;;;;;5014174;28;20461;-67
2021/10/01 09:47:16;;;;;;;3.33;3.03;;;16.90;93.10;;;;;;5015101;28;20563;-67
2021/10/01 09:49:43;;;;;;;5.20;4.40;;;16.90;93.10;;;;;;5014943;28;20461;-67
2021/10/01 09:52:14;;;;;;;4.87;4.37;;;16.90;93.30;;;;;;5015047;28;20479;-67
2021/10/01 09:54:41;;;;;;;4.30;3.13;;;17.00;93.40;;;;;;5014877;28;20456;-67
2021/10/01 09:57:09;;;;;;;3.83;1.93;;;17.10;93.50;;;;;;5015064;28;20815;-67
2021/10/01 09:59:37;;;;;;;2.97;1.57;;;17.20;93.50;;;;;;5014432;28;20476;-67
2021/10/01 10:02:10;;;;;;;2.43;2.13;;;17.20;93.30;;;;;;5015045;28;20952;-67
2021/10/01 10:04:42;;;;;;;1.83;1.63;;;17.30;93.10;;;;;;5014580;28;20500;-67
2021/10/01 10:07:14;;;;;;;3.03;1.60;;;17.30;92.90;;;;;;5014940;28;20481;-67
2021/10/01 10:09:43;;;;;;;3.90;1.67;;;17.30;92.30;;;;;;5014615;28;20807;-67
2021/10/01 10:12:13;;;;;;;2.80;2.47;;;17.30;91.90;;;;;;5014598;28;20477;-67
2021/10/01 10:14:49;;;;;;;6.03;2.73;;;17.30;92.00;;;;;;5014165;28;20452;-67
2021/10/01 10:17:17;;;;;;;3.40;2.47;;;17.40;92.30;;;;;;5014693;28;20464;-67
2021/10/01 10:19:44;;;;;;;3.83;3.00;;;17.50;92.00;;;;;;5014345;28;20469;-67
2021/10/01 10:22:13;;;;;;;4.30;3.90;;;17.50;92.50;;;;;;4995079;28;20466;-67
2021/10/01 10:24:40;;;;;;;4.03;3.63;;;17.60;92.60;;;;;;4994670;28;20573;-67
2021/10/01 10:27:07;;;;;;;3.50;3.20;;;17.70;92.50;;;;;;5010850;28;20469;-67
2021/10/01 10:29:34;;;;;;;4.37;3.20;;;17.80;92.80;;;;;;5014155;28;20473;-67
2021/10/01 10:32:02;;;;;;;3.93;3.50;;;17.80;92.50;;;;;;5014379;28;20495;-66
2021/10/01 10:34:31;;;;;;;3.03;2.73;;;17.80;92.50;;;;;;5014697;28;20479;-66
2021/10/01 10:37:04;;;;;;;4.10;2.70;;;17.90;92.60;;;;;;5013741;28;20473;-66
2021/10/01 10:39:38;;;;;;;4.37;3.97;;;17.90;92.60;;;;;;5014228;28;20477;-67
2021/10/01 10:42:11;;;;;;;6.33;4.67;;;17.90;92.30;;;;;;5014009;28;20469;-66
2021/10/01 10:44:45;;;;;;;6.37;5.50;;;18.00;92.30;;;;;;4994851;28;20541;-67
2021/10/01 10:47:13;;;;;;;5.80;3.73;;;18.00;92.20;;;;;;5005541;28;20488;-66
2021/10/01 10:49:40;;;;;;;8.13;3.30;;;18.10;92.40;;;;;;5014256;28;20476;-67
2021/10/01 10:52:09;;;;;;;4.40;2.77;;;18.10;92.10;;;;;;5013979;28;20465;-67
2021/10/01 10:54:40;;;;;;;3.50;2.27;;;18.10;91.50;;;;;;5014166;28;20475;-67
2021/10/01 10:57:29;;;;;;;2.73;1.77;;;18.10;91.40;;;;;;5013420;28;20471;-67
2021/10/01 11:00:01;;;;;;;2.97;1.70;;;18.20;91.30;;;;;;5012762;28;20967;-66
2021/10/01 11:02:32;;;;;;;5.50;2.40;;;18.30;91.20;;;;;;5013597;28;20477;-67
2021/10/01 11:05:19;;;;;;;3.60;1.50;;;18.30;91.30;;;;;;5012095;28;20971;-67
2021/10/01 11:07:49;;;;;;;5.50;3.13;;;18.30;91.20;;;;;;5012736;28;20491;-67
2021/10/01 11:10:39;;;;;;;3.60;1.80;;;18.30;91.20;;;;;;5010855;28;20471;-67
2021/10/01 11:13:28;;;;;;;2.70;1.90;;;18.30;90.50;;;;;;5012384;28;20497;-67
2021/10/01 11:16:15;;;;;;;2.60;1.33;;;18.40;90.50;;;;;;5012708;28;20469;-67
2021/10/01 11:19:05;;;;;;;2.70;1.67;;;18.40;90.40;;;;;;5012956;28;20814;-67
2021/10/01 11:21:35;;;;;;;2.37;1.40;;;18.40;90.30;;;;;;4994350;28;20544;-66
2021/10/01 11:24:03;;;;;;;3.50;1.70;;;18.40;90.50;;;;;;4998158;28;20671;-66
2021/10/01 11:26:33;;;;;;;1.90;1.40;;;18.50;90.40;;;;;;5013352;28;20468;-66
2021/10/01 11:29:01;;;;;;;1.50;1.40;;;18.50;90.40;;;;;;5012516;28;20818;-67
2021/10/01 11:31:37;;;;;;;2.27;1.50;;;18.60;90.60;;;;;;5011609;28;20496;-67
2021/10/01 11:34:04;;;;;;;2.13;1.80;;;18.60;90.70;;;;;;5007298;28;21219;-67
2021/10/01 11:36:31;;;;;;;4.50;1.60;;;18.70;90.60;;;;;;5012262;28;20471;-67
2021/10/01 11:39:09;;;;;;;2.60;1.60;;;18.70;88.90;;;;;;5004965;28;20489;-67
2021/10/01 11:41:41;;;;;;;4.90;1.47;;;18.70;89.10;;;;;;5005318;28;20461;-67
2021/10/01 11:44:09;;;;;;;2.80;1.70;;;18.80;88.60;;;;;;5007807;28;20486;-67
2021/10/01 11:46:39;;;;;;;2.60;1.60;;;18.80;88.20;;;;;;5011142;28;20505;-66
2021/10/01 11:49:15;;;;;;;1.83;1.40;;;18.80;87.70;;;;;;5009761;28;20955;-67
2021/10/01 11:51:42;;;;;;;1.87;1.37;;;18.80;88.20;;;;;;5008077;28;20468;-67
2021/10/01 11:54:13;;;;;;;2.07;1.50;;;18.90;88.30;;;;;;5006927;28;20453;-67
2021/10/01 11:56:54;;;;;;;2.53;1.57;;;18.90;87.50;;;;;;5012222;28;20460;-66
2021/10/01 11:59:21;;;;;;;4.10;1.73;;;18.90;87.30;;;;;;5011494;28;20483;-66
2021/10/01 12:01:55;;;;;;;3.40;2.97;;;18.90;87.30;;;;;;5010380;28;20460;-67
2021/10/01 12:04:29;;;;;;;2.30;1.63;;;18.90;87.30;;;;;;5006228;28;20575;-67
2021/10/01 12:07:01;;;;;;;2.73;1.53;;;18.90;85.80;;;;;;5009751;28;20452;-67
2021/10/01 12:09:28;;;;;;;2.70;1.30;;;18.90;85.90;;;;;;5010523;28;20487;-67
2021/10/01 12:11:56;;;;;;;1.40;1.30;;;18.90;86.50;;;;;;5012121;28;20785;-67
2021/10/01 12:14:23;;;;;;;1.90;1.00;;;19.00;86.40;;;;;;5012474;28;20472;-67
2021/10/01 12:16:56;;;;;;;3.37;1.80;;;19.00;84.70;;;;;;5011791;28;20483;-67
2021/10/01 12:19:24;;;;;;;1.97;1.30;;;19.00;85.30;;;;;;5012529;28;20469;-67
2021/10/01 12:22:02;;;;;;;1.80;1.30;;;19.00;85.80;;;;;;5012059;28;20465;-67
2021/10/01 12:24:29;;;;;;;4.20;2.00;;;19.10;84.10;;;;;;5011589;28;20464;-67
2021/10/01 12:27:01;;;;;;;2.70;1.77;;;19.10;82.10;;;;;;5012277;28;20479;-67
2021/10/01 12:29:28;;;;;;;4.00;1.83;;;19.10;80.90;;;;;;5012142;28;20461;-67
2021/10/01 12:32:00;;;;;;;2.20;1.50;;;19.20;81.80;;;;;;5012184;28;20457;-66
2021/10/01 12:34:29;;;;;;;2.10;1.07;;;19.20;81.00;;;;;;5012569;28;20479;-66
2021/10/01 12:37:01;;;;;;;1.60;1.27;;;19.20;80.30;;;;;;4997675;28;20457;-66
2021/10/01 12:39:29;;;;;;;1.60;1.50;;;19.20;80.90;;;;;;5011183;28;20830;-66
2021/10/01 12:41:58;;;;;;;2.73;2.30;;;19.30;79.50;;;;;;5019806;28;20471;-66
2021/10/01 12:44:26;;;;;;;2.90;2.37;;;19.30;79.20;;;;;;5029906;28;20464;-67
2021/10/01 12:46:55;;;;;;;3.33;1.40;;;19.30;78.30;;;;;;5011257;28;20476;-67
2021/10/01 12:49:25;;;;;;;2.17;1.10;;;19.30;76.20;;;;;;5009204;28;20481;-66
2021/10/01 12:52:14;;;;;;;2.90;1.60;;;19.30;76.60;;;;;;5011043;28;20468;-67
2021/10/01 12:54:48;;;;;;;2.53;1.40;;;19.30;77.00;;;;;;5008602;28;20480;-66
2021/10/01 12:57:26;;;;;;;2.50;1.60;;;19.30;76.80;;;;;;5011755;28;20461;-67
2021/10/01 12:59:55;;;;;;;1.57;1.00;;;19.40;76.70;;;;;;5011495;28;20556;-67
2021/10/01 13:02:25;;;;;;;1.67;0.90;;;19.30;75.10;;;;;;4999684;28;20461;-66
2021/10/01 13:04:56;;;;;;;1.80;1.07;;;19.30;74.40;;;;;;5009817;28;20981;-66
2021/10/01 13:07:31;;;;;;;2.20;1.00;;;19.40;75.30;;;;;;5012460;28;20981;-67
2021/10/01 13:10:01;;;;;;;2.37;0.93;;;19.30;75.10;;;;;;4992383;28;20499;-66
2021/10/01 13:12:34;;;;;;;1.80;0.90;;;19.40;75.90;;;;;;5006416;28;20507;-66
2021/10/01 13:15:09;;;;;;;1.77;1.33;;;19.40;75.70;;;;;;5009972;28;20451;-66
2021/10/01 13:17:36;;;;;;;3.73;1.40;;;19.40;75.80;;;;;;5002134;28;20461;-66
2021/10/01 13:20:03;;;;;;;4.10;1.13;;;19.40;75.40;;;;;;5013214;28;21030;-66
2021/10/01 13:22:56;;;;;;;1.83;0.97;;;19.50;75.80;;;;;;5013402;28;20469;-67
2021/10/01 13:25:23;;;;;;;1.30;1.10;;;19.50;76.00;;;;;;5012590;28;20464;-66
2021/10/01 13:27:53;;;;;;;1.93;0.90;;;19.50;75.10;;;;;;5015138;28;20469;-66
2021/10/01 13:30:21;;;;;;;1.53;0.90;;;19.50;75.30;;;;;;5012042;28;20806;-66
2021/10/01 13:32:48;;;;;;;2.17;1.20;;;19.50;74.50;;;;;;5011369;28;20477;-66
2021/10/01 13:35:16;;;;;;;1.37;1.10;;;19.50;74.50;;;;;;5012921;28;20477;-66
2021/10/01 13:37:44;;;;;;;2.20;1.63;;;19.50;74.20;;;;;;5015138;28;20511;-66
2021/10/01 13:40:12;;;;;;;2.50;1.23;;;19.50;74.70;;;;;;5015406;28;20476;-66
2021/10/01 13:42:39;;;;;;;3.03;1.27;;;19.50;73.60;;;;;;5014857;28;20471;-67
2021/10/01 13:45:09;;;;;;;2.03;1.10;;;19.50;74.10;;;;;;5014886;28;20471;-67
2021/10/01 13:47:37;;;;;;;1.50;1.30;;;19.50;74.70;;;;;;5014874;28;20467;-66
2021/10/01 13:50:06;;;;;;;2.93;1.20;;;19.50;75.20;;;;;;5015329;28;20460;-67
2021/10/01 13:52:33;;;;;;;1.87;1.57;;;19.50;75.40;;;;;;5014851;28;21009;-66
2021/10/01 13:55:00;;;;;;;1.70;1.50;;;19.50;75.20;;;;;;5014790;28;20967;-67
2021/10/01 13:57:28;;;;;;;2.07;1.17;;;19.40;75.00;;;;;;5014573;28;20464;-67
2021/10/01 13:59:55;;;;;;;1.27;1.00;;;19.40;75.00;;;;;;5014644;28;20492;-67
2021/10/01 14:02:23;;;;;;;1.43;1.10;;;19.50;75.20;;;;;;5009617;28;20477;-66
2021/10/01 14:04:50;;;;;;;2.67;1.50;;;19.40;73.90;;;;;;4998011;28;20792;-66
2021/10/01 14:07:18;;;;;;;4.10;1.43;;;19.30;73.60;;;;;;5013557;28;20483;-67
2021/10/01 14:09:45;;;;;;;1.47;1.20;;;19.30;74.30;;;;;;5013685;28;20469;-66
2021/10/01 14:12:13;;;;;;;1.43;1.13;;;19.30;74.40;;;;;;5014422;28;20842;-66
2021/10/01 14:14:40;;;;;;;7.40;1.40;;;19.30;73.60;;;;;;5012255;28;20496;-66
2021/10/01 14:17:06;;;;;;;1.77;1.33;;;19.30;73.10;;;;;;5013825;28;20469;-66
2021/10/01 14:19:35;;;;;;;2.47;1.30;;;19.30;73.00;;;;;;5009946;28;20557;-67
2021/10/01 14:22:01;;;;;;;2.07;1.13;;;19.30;72.60;;;;;;5007954;28;20476;-66